sensor_id;sensor_type;location;lat;lon;timestamp;P1;durP1;ratioP1;P2;durP2;ratioP2
68614;SDS011;55593;51.994;5.882;2022-10-17T00:01:39;15.25;;;12.35;;
68614;SDS011;55593;51.994;5.882;2022-10-17T00:04:09;19.70;;;11.80;;
68614;SDS011;55593;51.994;5.882;2022-10-17T00:06:38;20.98;;;12.43;;
68614;SDS011;55593;51.994;5.882;2022-10-17T00:09:07;18.15;;;12.50;;
68614;SDS011;55593;51.994;5.882;2022-10-17T00:11:37;20.73;;;14.27;;
68614;SDS011;55593;51.994;5.882;2022-10-17T00:14:06;27.67;;;13.20;;
68614;SDS011;55593;51.994;5.882;2022-10-17T00:16:36;21.33;;;12.68;;
68614;SDS011;55593;51.994;5.882;2022-10-17T00:19:07;20.75;;;12.93;;
68614;SDS011;55593;51.994;5.882;2022-10-17T00:21:37;20.83;;;13.88;;
68614;SDS011;55593;51.994;5.882;2022-10-17T00:24:06;18.52;;;12.73;;
68614;SDS011;55593;51.994;5.882;2022-10-17T00:26:35;16.90;;;12.38;;
68614;SDS011;55593;51.994;5.882;2022-10-17T00:29:04;30.80;;;14.13;;
68614;SDS011;55593;51.994;5.882;2022-10-17T00:31:33;19.42;;;12.95;;
68614;SDS011;55593;51.994;5.882;2022-10-17T00:34:04;23.73;;;12.93;;
68614;SDS011;55593;51.994;5.882;2022-10-17T00:36:35;20.05;;;14.05;;
68614;SDS011;55593;51.994;5.882;2022-10-17T00:39:05;16.00;;;12.80;;
68614;SDS011;55593;51.994;5.882;2022-10-17T00:41:34;19.65;;;13.50;;
68614;SDS011;55593;51.994;5.882;2022-10-17T00:44:05;19.10;;;13.93;;
68614;SDS011;55593;51.994;5.882;2022-10-17T00:46:35;21.83;;;13.32;;
68614;SDS011;55593;51.994;5.882;2022-10-17T00:49:09;21.98;;;14.75;;
68614;SDS011;55593;51.994;5.882;2022-10-17T00:51:42;20.58;;;15.05;;
68614;SDS011;55593;51.994;5.882;2022-10-17T00:54:13;20.20;;;15.13;;
68614;SDS011;55593;51.994;5.882;2022-10-17T00:56:44;20.65;;;14.43;;
68614;SDS011;55593;51.994;5.882;2022-10-17T00:59:15;22.00;;;13.98;;
68614;SDS011;55593;51.994;5.882;2022-10-17T01:01:46;20.63;;;14.40;;
68614;SDS011;55593;51.994;5.882;2022-10-17T01:04:19;19.65;;;14.05;;
68614;SDS011;55593;51.994;5.882;2022-10-17T01:06:51;26.30;;;15.13;;
68614;SDS011;55593;51.994;5.882;2022-10-17T01:09:20;18.42;;;14.45;;
68614;SDS011;55593;51.994;5.882;2022-10-17T01:11:52;21.55;;;14.57;;
68614;SDS011;55593;51.994;5.882;2022-10-17T01:14:27;17.33;;;13.93;;
68614;SDS011;55593;51.994;5.882;2022-10-17T01:17:01;18.90;;;14.55;;
68614;SDS011;55593;51.994;5.882;2022-10-17T01:19:38;22.00;;;15.45;;
68614;SDS011;55593;51.994;5.882;2022-10-17T01:22:25;20.52;;;14.48;;
68614;SDS011;55593;51.994;5.882;2022-10-17T01:25:06;19.50;;;15.02;;
68614;SDS011;55593;51.994;5.882;2022-10-17T01:27:52;18.08;;;13.77;;
68614;SDS011;55593;51.994;5.882;2022-10-17T01:33:30;24.38;;;15.60;;
68614;SDS011;55593;51.994;5.882;2022-10-17T01:36:05;24.98;;;16.55;;
68614;SDS011;55593;51.994;5.882;2022-10-17T01:38:40;21.70;;;15.25;;
68614;SDS011;55593;51.994;5.882;2022-10-17T01:41:14;22.92;;;16.08;;
68614;SDS011;55593;51.994;5.882;2022-10-17T01:43:48;18.77;;;14.40;;
68614;SDS011;55593;51.994;5.882;2022-10-17T01:46:21;21.67;;;15.52;;
68614;SDS011;55593;51.994;5.882;2022-10-17T01:48:55;21.30;;;16.13;;
68614;SDS011;55593;51.994;5.882;2022-10-17T01:51:26;22.95;;;16.80;;
68614;SDS011;55593;51.994;5.882;2022-10-17T01:53:59;20.38;;;14.70;;
68614;SDS011;55593;51.994;5.882;2022-10-17T01:56:30;24.35;;;16.88;;
68614;SDS011;55593;51.994;5.882;2022-10-17T01:59:01;27.70;;;17.30;;
68614;SDS011;55593;51.994;5.882;2022-10-17T02:01:35;23.25;;;16.02;;
68614;SDS011;55593;51.994;5.882;2022-10-17T02:04:07;33.22;;;18.77;;
68614;SDS011;55593;51.994;5.882;2022-10-17T02:06:38;23.20;;;15.40;;
68614;SDS011;55593;51.994;5.882;2022-10-17T02:09:17;21.50;;;15.70;;
68614;SDS011;55593;51.994;5.882;2022-10-17T02:11:54;21.83;;;15.98;;
68614;SDS011;55593;51.994;5.882;2022-10-17T02:14:36;23.30;;;16.25;;
68614;SDS011;55593;51.994;5.882;2022-10-17T02:17:13;22.02;;;15.68;;
68614;SDS011;55593;51.994;5.882;2022-10-17T02:19:53;27.25;;;16.50;;
68614;SDS011;55593;51.994;5.882;2022-10-17T02:22:26;24.75;;;16.30;;
68614;SDS011;55593;51.994;5.882;2022-10-17T02:25:02;22.55;;;15.27;;
68614;SDS011;55593;51.994;5.882;2022-10-17T02:27:39;24.63;;;17.42;;
68614;SDS011;55593;51.994;5.882;2022-10-17T02:30:12;24.05;;;15.98;;
68614;SDS011;55593;51.994;5.882;2022-10-17T02:32:46;28.45;;;17.17;;
68614;SDS011;55593;51.994;5.882;2022-10-17T02:35:22;24.63;;;16.75;;
68614;SDS011;55593;51.994;5.882;2022-10-17T02:37:53;23.20;;;16.05;;
68614;SDS011;55593;51.994;5.882;2022-10-17T02:40:23;20.58;;;16.75;;
68614;SDS011;55593;51.994;5.882;2022-10-17T02:42:52;25.40;;;16.25;;
68614;SDS011;55593;51.994;5.882;2022-10-17T02:45:22;23.50;;;16.73;;
68614;SDS011;55593;51.994;5.882;2022-10-17T02:47:53;21.38;;;14.80;;
68614;SDS011;55593;51.994;5.882;2022-10-17T02:50:32;22.27;;;15.93;;
68614;SDS011;55593;51.994;5.882;2022-10-17T02:53:08;23.13;;;16.95;;
68614;SDS011;55593;51.994;5.882;2022-10-17T02:55:41;23.42;;;16.40;;
68614;SDS011;55593;51.994;5.882;2022-10-17T02:58:15;24.50;;;15.48;;
68614;SDS011;55593;51.994;5.882;2022-10-17T03:00:46;19.75;;;15.57;;
68614;SDS011;55593;51.994;5.882;2022-10-17T03:03:20;24.75;;;16.27;;
68614;SDS011;55593;51.994;5.882;2022-10-17T03:05:53;20.60;;;15.57;;
68614;SDS011;55593;51.994;5.882;2022-10-17T03:08:24;21.63;;;13.57;;
68614;SDS011;55593;51.994;5.882;2022-10-17T03:10:55;28.42;;;16.20;;
68614;SDS011;55593;51.994;5.882;2022-10-17T03:13:26;34.75;;;14.70;;
68614;SDS011;55593;51.994;5.882;2022-10-17T03:15:55;21.85;;;15.23;;
68614;SDS011;55593;51.994;5.882;2022-10-17T03:18:25;21.77;;;15.15;;
68614;SDS011;55593;51.994;5.882;2022-10-17T03:21:01;21.20;;;14.63;;
68614;SDS011;55593;51.994;5.882;2022-10-17T03:23:30;20.75;;;14.18;;
68614;SDS011;55593;51.994;5.882;2022-10-17T03:26:02;21.27;;;15.55;;
68614;SDS011;55593;51.994;5.882;2022-10-17T03:28:32;19.00;;;15.02;;
68614;SDS011;55593;51.994;5.882;2022-10-17T03:31:05;20.58;;;13.57;;
68614;SDS011;55593;51.994;5.882;2022-10-17T03:33:35;19.73;;;14.05;;
68614;SDS011;55593;51.994;5.882;2022-10-17T03:36:08;21.48;;;13.82;;
68614;SDS011;55593;51.994;5.882;2022-10-17T03:38:39;22.25;;;13.50;;
68614;SDS011;55593;51.994;5.882;2022-10-17T03:41:08;24.80;;;13.85;;
68614;SDS011;55593;51.994;5.882;2022-10-17T03:43:38;20.00;;;14.38;;
68614;SDS011;55593;51.994;5.882;2022-10-17T03:46:08;22.30;;;14.57;;
68614;SDS011;55593;51.994;5.882;2022-10-17T03:48:37;22.30;;;14.45;;
68614;SDS011;55593;51.994;5.882;2022-10-17T03:51:09;17.67;;;14.15;;
68614;SDS011;55593;51.994;5.882;2022-10-17T03:53:46;21.52;;;13.70;;
68614;SDS011;55593;51.994;5.882;2022-10-17T03:56:16;18.42;;;13.65;;
68614;SDS011;55593;51.994;5.882;2022-10-17T03:58:55;17.10;;;13.73;;
68614;SDS011;55593;51.994;5.882;2022-10-17T04:01:24;21.02;;;14.07;;
68614;SDS011;55593;51.994;5.882;2022-10-17T04:03:54;21.60;;;14.73;;
68614;SDS011;55593;51.994;5.882;2022-10-17T04:06:29;18.58;;;13.52;;
68614;SDS011;55593;51.994;5.882;2022-10-17T04:08:59;25.80;;;16.42;;
68614;SDS011;55593;51.994;5.882;2022-10-17T04:11:52;20.75;;;14.20;;
68614;SDS011;55593;51.994;5.882;2022-10-17T04:14:21;18.83;;;13.30;;
68614;SDS011;55593;51.994;5.882;2022-10-17T04:16:51;23.85;;;13.90;;
68614;SDS011;55593;51.994;5.882;2022-10-17T04:19:20;21.63;;;14.75;;
68614;SDS011;55593;51.994;5.882;2022-10-17T04:21:53;19.35;;;13.55;;
68614;SDS011;55593;51.994;5.882;2022-10-17T04:24:23;27.75;;;14.90;;
68614;SDS011;55593;51.994;5.882;2022-10-17T04:27:08;18.65;;;13.13;;
68614;SDS011;55593;51.994;5.882;2022-10-17T04:29:41;22.73;;;13.07;;
68614;SDS011;55593;51.994;5.882;2022-10-17T04:32:18;21.33;;;14.05;;
68614;SDS011;55593;51.994;5.882;2022-10-17T04:35:01;16.90;;;13.13;;
68614;SDS011;55593;51.994;5.882;2022-10-17T04:37:34;14.68;;;12.50;;
68614;SDS011;55593;51.994;5.882;2022-10-17T04:40:10;20.50;;;13.88;;
68614;SDS011;55593;51.994;5.882;2022-10-17T04:42:39;20.33;;;13.85;;
68614;SDS011;55593;51.994;5.882;2022-10-17T04:45:11;19.42;;;12.90;;
68614;SDS011;55593;51.994;5.882;2022-10-17T04:47:42;17.80;;;13.07;;
68614;SDS011;55593;51.994;5.882;2022-10-17T04:50:11;19.48;;;14.25;;
68614;SDS011;55593;51.994;5.882;2022-10-17T04:52:42;17.48;;;11.32;;
68614;SDS011;55593;51.994;5.882;2022-10-17T04:55:12;20.63;;;13.82;;
68614;SDS011;55593;51.994;5.882;2022-10-17T04:57:41;25.10;;;13.13;;
68614;SDS011;55593;51.994;5.882;2022-10-17T05:00:16;20.35;;;15.30;;
68614;SDS011;55593;51.994;5.882;2022-10-17T05:02:52;15.50;;;11.80;;
68614;SDS011;55593;51.994;5.882;2022-10-17T05:05:21;19.92;;;13.32;;
68614;SDS011;55593;51.994;5.882;2022-10-17T05:07:55;22.20;;;14.15;;
68614;SDS011;55593;51.994;5.882;2022-10-17T05:10:28;17.58;;;12.15;;
68614;SDS011;55593;51.994;5.882;2022-10-17T05:12:58;18.55;;;11.93;;
68614;SDS011;55593;51.994;5.882;2022-10-17T05:15:30;17.08;;;12.18;;
68614;SDS011;55593;51.994;5.882;2022-10-17T05:18:00;25.75;;;12.63;;
68614;SDS011;55593;51.994;5.882;2022-10-17T05:20:30;22.02;;;14.52;;
68614;SDS011;55593;51.994;5.882;2022-10-17T05:23:02;20.63;;;13.60;;
68614;SDS011;55593;51.994;5.882;2022-10-17T05:25:36;18.23;;;12.55;;
68614;SDS011;55593;51.994;5.882;2022-10-17T05:28:05;18.77;;;11.68;;
68614;SDS011;55593;51.994;5.882;2022-10-17T05:30:35;19.85;;;12.88;;
68614;SDS011;55593;51.994;5.882;2022-10-17T05:33:06;16.05;;;13.77;;
68614;SDS011;55593;51.994;5.882;2022-10-17T05:35:36;21.67;;;13.70;;
68614;SDS011;55593;51.994;5.882;2022-10-17T05:38:08;17.42;;;13.50;;
68614;SDS011;55593;51.994;5.882;2022-10-17T05:40:40;21.73;;;12.68;;
68614;SDS011;55593;51.994;5.882;2022-10-17T05:43:09;25.60;;;14.45;;
68614;SDS011;55593;51.994;5.882;2022-10-17T05:45:39;21.58;;;12.70;;
68614;SDS011;55593;51.994;5.882;2022-10-17T05:48:15;15.13;;;9.73;;
68614;SDS011;55593;51.994;5.882;2022-10-17T05:50:44;22.17;;;12.90;;
68614;SDS011;55593;51.994;5.882;2022-10-17T05:53:18;26.70;;;14.20;;
68614;SDS011;55593;51.994;5.882;2022-10-17T05:55:54;19.25;;;12.68;;
68614;SDS011;55593;51.994;5.882;2022-10-17T05:58:23;17.55;;;13.10;;
68614;SDS011;55593;51.994;5.882;2022-10-17T06:00:59;18.05;;;13.13;;
68614;SDS011;55593;51.994;5.882;2022-10-17T06:03:29;21.23;;;13.82;;
68614;SDS011;55593;51.994;5.882;2022-10-17T06:06:04;17.90;;;13.65;;
68614;SDS011;55593;51.994;5.882;2022-10-17T06:08:38;21.90;;;15.15;;
68614;SDS011;55593;51.994;5.882;2022-10-17T06:11:10;22.23;;;14.60;;
68614;SDS011;55593;51.994;5.882;2022-10-17T06:13:39;22.33;;;14.30;;
68614;SDS011;55593;51.994;5.882;2022-10-17T06:16:14;26.92;;;14.25;;
68614;SDS011;55593;51.994;5.882;2022-10-17T06:18:44;21.13;;;13.63;;
68614;SDS011;55593;51.994;5.882;2022-10-17T06:21:14;19.40;;;14.05;;
68614;SDS011;55593;51.994;5.882;2022-10-17T06:23:50;25.30;;;14.93;;
68614;SDS011;55593;51.994;5.882;2022-10-17T06:26:31;19.63;;;13.63;;
68614;SDS011;55593;51.994;5.882;2022-10-17T06:29:01;18.40;;;14.05;;
68614;SDS011;55593;51.994;5.882;2022-10-17T06:31:34;20.95;;;14.40;;
68614;SDS011;55593;51.994;5.882;2022-10-17T06:34:03;19.83;;;13.00;;
68614;SDS011;55593;51.994;5.882;2022-10-17T06:36:33;21.77;;;14.45;;
68614;SDS011;55593;51.994;5.882;2022-10-17T06:39:05;19.70;;;13.02;;
68614;SDS011;55593;51.994;5.882;2022-10-17T06:41:46;16.10;;;13.45;;
68614;SDS011;55593;51.994;5.882;2022-10-17T06:44:18;19.42;;;13.77;;
68614;SDS011;55593;51.994;5.882;2022-10-17T06:46:57;23.05;;;14.40;;
68614;SDS011;55593;51.994;5.882;2022-10-17T06:49:27;22.02;;;13.73;;
68614;SDS011;55593;51.994;5.882;2022-10-17T06:52:17;18.67;;;13.20;;
68614;SDS011;55593;51.994;5.882;2022-10-17T06:55:05;21.73;;;14.80;;
68614;SDS011;55593;51.994;5.882;2022-10-17T06:58:00;21.33;;;15.07;;
68614;SDS011;55593;51.994;5.882;2022-10-17T07:00:49;22.92;;;16.13;;
68614;SDS011;55593;51.994;5.882;2022-10-17T07:03:19;20.73;;;14.27;;
68614;SDS011;55593;51.994;5.882;2022-10-17T07:05:50;20.38;;;14.00;;
68614;SDS011;55593;51.994;5.882;2022-10-17T07:08:19;22.05;;;14.57;;
68614;SDS011;55593;51.994;5.882;2022-10-17T07:10:52;23.10;;;14.23;;
68614;SDS011;55593;51.994;5.882;2022-10-17T07:13:22;19.70;;;14.10;;
68614;SDS011;55593;51.994;5.882;2022-10-17T07:15:52;20.20;;;13.10;;
68614;SDS011;55593;51.994;5.882;2022-10-17T07:18:26;18.45;;;13.73;;
68614;SDS011;55593;51.994;5.882;2022-10-17T07:20:56;23.45;;;13.93;;
68614;SDS011;55593;51.994;5.882;2022-10-17T07:23:25;22.25;;;14.25;;
68614;SDS011;55593;51.994;5.882;2022-10-17T07:26:01;23.90;;;14.65;;
68614;SDS011;55593;51.994;5.882;2022-10-17T07:28:32;28.73;;;14.82;;
68614;SDS011;55593;51.994;5.882;2022-10-17T07:31:09;23.90;;;13.85;;
68614;SDS011;55593;51.994;5.882;2022-10-17T07:33:40;16.58;;;12.85;;
68614;SDS011;55593;51.994;5.882;2022-10-17T07:36:09;21.60;;;13.80;;
68614;SDS011;55593;51.994;5.882;2022-10-17T07:38:39;31.05;;;16.60;;
68614;SDS011;55593;51.994;5.882;2022-10-17T07:41:13;26.50;;;15.77;;
68614;SDS011;55593;51.994;5.882;2022-10-17T07:43:42;21.23;;;14.25;;
68614;SDS011;55593;51.994;5.882;2022-10-17T07:46:13;19.92;;;13.98;;
68614;SDS011;55593;51.994;5.882;2022-10-17T07:48:43;18.38;;;13.23;;
68614;SDS011;55593;51.994;5.882;2022-10-17T07:51:14;21.00;;;14.00;;
68614;SDS011;55593;51.994;5.882;2022-10-17T07:53:44;19.10;;;13.63;;
68614;SDS011;55593;51.994;5.882;2022-10-17T07:56:16;22.35;;;13.30;;
68614;SDS011;55593;51.994;5.882;2022-10-17T07:58:49;21.30;;;13.23;;
68614;SDS011;55593;51.994;5.882;2022-10-17T08:01:18;17.08;;;13.35;;
68614;SDS011;55593;51.994;5.882;2022-10-17T08:03:47;27.08;;;13.63;;
68614;SDS011;55593;51.994;5.882;2022-10-17T08:06:17;15.77;;;13.25;;
68614;SDS011;55593;51.994;5.882;2022-10-17T08:08:46;21.27;;;13.68;;
68614;SDS011;55593;51.994;5.882;2022-10-17T08:11:18;20.77;;;12.82;;
68614;SDS011;55593;51.994;5.882;2022-10-17T08:13:48;17.30;;;13.05;;
68614;SDS011;55593;51.994;5.882;2022-10-17T08:16:17;20.10;;;13.38;;
68614;SDS011;55593;51.994;5.882;2022-10-17T08:18:46;23.27;;;13.80;;
68614;SDS011;55593;51.994;5.882;2022-10-17T08:21:15;23.13;;;14.55;;
68614;SDS011;55593;51.994;5.882;2022-10-17T08:23:45;30.27;;;14.77;;
68614;SDS011;55593;51.994;5.882;2022-10-17T08:26:14;36.00;;;16.50;;
68614;SDS011;55593;51.994;5.882;2022-10-17T08:28:47;27.83;;;17.67;;
68614;SDS011;55593;51.994;5.882;2022-10-17T08:31:20;26.27;;;14.95;;
68614;SDS011;55593;51.994;5.882;2022-10-17T08:33:49;30.80;;;17.20;;
68614;SDS011;55593;51.994;5.882;2022-10-17T08:36:18;23.15;;;16.75;;
68614;SDS011;55593;51.994;5.882;2022-10-17T08:38:48;30.00;;;18.27;;
68614;SDS011;55593;51.994;5.882;2022-10-17T08:41:21;25.40;;;16.30;;
68614;SDS011;55593;51.994;5.882;2022-10-17T08:44:17;27.25;;;17.88;;
68614;SDS011;55593;51.994;5.882;2022-10-17T08:46:54;22.25;;;15.82;;
68614;SDS011;55593;51.994;5.882;2022-10-17T08:49:26;29.23;;;17.73;;
68614;SDS011;55593;51.994;5.882;2022-10-17T08:52:01;30.67;;;18.58;;
68614;SDS011;55593;51.994;5.882;2022-10-17T08:54:37;32.70;;;17.30;;
68614;SDS011;55593;51.994;5.882;2022-10-17T08:57:11;36.65;;;20.38;;
68614;SDS011;55593;51.994;5.882;2022-10-17T08:59:44;34.00;;;19.27;;
68614;SDS011;55593;51.994;5.882;2022-10-17T09:02:20;56.10;;;21.38;;
68614;SDS011;55593;51.994;5.882;2022-10-17T09:04:59;38.30;;;19.98;;
68614;SDS011;55593;51.994;5.882;2022-10-17T09:07:43;33.80;;;18.48;;
68614;SDS011;55593;51.994;5.882;2022-10-17T09:10:17;37.00;;;20.95;;
68614;SDS011;55593;51.994;5.882;2022-10-17T09:12:51;36.63;;;20.87;;
68614;SDS011;55593;51.994;5.882;2022-10-17T09:15:36;38.05;;;20.42;;
68614;SDS011;55593;51.994;5.882;2022-10-17T09:18:15;47.03;;;21.58;;
68614;SDS011;55593;51.994;5.882;2022-10-17T09:20:48;33.35;;;19.73;;
68614;SDS011;55593;51.994;5.882;2022-10-17T09:23:20;32.00;;;20.15;;
68614;SDS011;55593;51.994;5.882;2022-10-17T09:25:52;32.35;;;20.30;;
68614;SDS011;55593;51.994;5.882;2022-10-17T09:28:24;40.40;;;19.55;;
68614;SDS011;55593;51.994;5.882;2022-10-17T09:30:58;48.05;;;24.92;;
68614;SDS011;55593;51.994;5.882;2022-10-17T09:33:31;34.75;;;19.67;;
68614;SDS011;55593;51.994;5.882;2022-10-17T09:36:03;27.67;;;17.80;;
68614;SDS011;55593;51.994;5.882;2022-10-17T09:38:37;52.17;;;23.58;;
68614;SDS011;55593;51.994;5.882;2022-10-17T09:41:12;42.10;;;20.48;;
68614;SDS011;55593;51.994;5.882;2022-10-17T09:43:45;31.05;;;18.40;;
68614;SDS011;55593;51.994;5.882;2022-10-17T09:46:18;27.25;;;16.95;;
68614;SDS011;55593;51.994;5.882;2022-10-17T09:48:52;39.35;;;18.52;;
68614;SDS011;55593;51.994;5.882;2022-10-17T09:51:25;38.90;;;18.90;;
68614;SDS011;55593;51.994;5.882;2022-10-17T09:53:54;36.15;;;18.58;;
68614;SDS011;55593;51.994;5.882;2022-10-17T09:56:27;27.02;;;16.42;;
68614;SDS011;55593;51.994;5.882;2022-10-17T09:58:56;20.70;;;14.40;;
68614;SDS011;55593;51.994;5.882;2022-10-17T10:01:29;28.75;;;17.95;;
68614;SDS011;55593;51.994;5.882;2022-10-17T10:04:09;38.30;;;19.88;;
68614;SDS011;55593;51.994;5.882;2022-10-17T10:06:39;61.80;;;23.77;;
68614;SDS011;55593;51.994;5.882;2022-10-17T10:09:19;36.05;;;19.35;;
68614;SDS011;55593;51.994;5.882;2022-10-17T10:11:49;31.33;;;17.67;;
68614;SDS011;55593;51.994;5.882;2022-10-17T10:14:20;26.25;;;16.63;;
68614;SDS011;55593;51.994;5.882;2022-10-17T10:16:53;35.72;;;18.10;;
68614;SDS011;55593;51.994;5.882;2022-10-17T10:19:26;36.55;;;20.35;;
68614;SDS011;55593;51.994;5.882;2022-10-17T10:21:58;40.53;;;19.05;;
68614;SDS011;55593;51.994;5.882;2022-10-17T10:24:28;27.33;;;16.90;;
68614;SDS011;55593;51.994;5.882;2022-10-17T10:26:58;39.55;;;18.60;;
68614;SDS011;55593;51.994;5.882;2022-10-17T10:29:29;32.70;;;17.30;;
68614;SDS011;55593;51.994;5.882;2022-10-17T10:32:09;21.02;;;14.20;;
68614;SDS011;55593;51.994;5.882;2022-10-17T10:34:42;25.30;;;15.90;;
68614;SDS011;55593;51.994;5.882;2022-10-17T10:37:15;33.67;;;17.85;;
68614;SDS011;55593;51.994;5.882;2022-10-17T10:39:46;28.00;;;17.15;;
68614;SDS011;55593;51.994;5.882;2022-10-17T10:42:21;26.38;;;15.27;;
68614;SDS011;55593;51.994;5.882;2022-10-17T10:44:52;32.67;;;16.63;;
68614;SDS011;55593;51.994;5.882;2022-10-17T10:47:26;27.33;;;16.05;;
68614;SDS011;55593;51.994;5.882;2022-10-17T10:50:07;32.47;;;16.95;;
68614;SDS011;55593;51.994;5.882;2022-10-17T10:52:45;32.15;;;17.48;;
68614;SDS011;55593;51.994;5.882;2022-10-17T10:55:21;32.63;;;17.95;;
68614;SDS011;55593;51.994;5.882;2022-10-17T10:57:53;35.85;;;18.95;;
68614;SDS011;55593;51.994;5.882;2022-10-17T11:00:25;31.08;;;17.05;;
68614;SDS011;55593;51.994;5.882;2022-10-17T11:03:00;32.05;;;17.30;;
68614;SDS011;55593;51.994;5.882;2022-10-17T11:05:39;24.60;;;15.93;;
68614;SDS011;55593;51.994;5.882;2022-10-17T11:08:13;25.38;;;16.05;;
68614;SDS011;55593;51.994;5.882;2022-10-17T11:10:52;25.67;;;15.40;;
68614;SDS011;55593;51.994;5.882;2022-10-17T11:13:29;25.20;;;14.77;;
68614;SDS011;55593;51.994;5.882;2022-10-17T11:16:01;28.00;;;14.52;;
68614;SDS011;55593;51.994;5.882;2022-10-17T11:18:38;33.05;;;16.05;;
68614;SDS011;55593;51.994;5.882;2022-10-17T11:21:12;26.85;;;15.23;;
68614;SDS011;55593;51.994;5.882;2022-10-17T11:23:45;26.20;;;15.40;;
68614;SDS011;55593;51.994;5.882;2022-10-17T11:26:16;30.92;;;16.40;;
68614;SDS011;55593;51.994;5.882;2022-10-17T11:28:51;30.98;;;17.27;;
68614;SDS011;55593;51.994;5.882;2022-10-17T11:31:22;38.75;;;18.60;;
68614;SDS011;55593;51.994;5.882;2022-10-17T11:33:56;33.53;;;19.45;;
68614;SDS011;55593;51.994;5.882;2022-10-17T11:36:27;35.28;;;18.98;;
68614;SDS011;55593;51.994;5.882;2022-10-17T11:38:59;47.60;;;19.70;;
68614;SDS011;55593;51.994;5.882;2022-10-17T11:41:31;31.30;;;18.17;;
68614;SDS011;55593;51.994;5.882;2022-10-17T11:44:04;35.75;;;19.55;;
68614;SDS011;55593;51.994;5.882;2022-10-17T11:46:52;35.38;;;19.80;;
68614;SDS011;55593;51.994;5.882;2022-10-17T11:49:27;32.00;;;17.10;;
68614;SDS011;55593;51.994;5.882;2022-10-17T11:54:29;38.38;;;19.10;;
68614;SDS011;55593;51.994;5.882;2022-10-17T11:57:05;27.77;;;18.45;;
68614;SDS011;55593;51.994;5.882;2022-10-17T11:59:55;40.63;;;20.23;;
68614;SDS011;55593;51.994;5.882;2022-10-17T12:02:33;39.05;;;21.38;;
68614;SDS011;55593;51.994;5.882;2022-10-17T12:05:10;38.65;;;20.73;;
68614;SDS011;55593;51.994;5.882;2022-10-17T12:07:47;44.95;;;22.60;;
68614;SDS011;55593;51.994;5.882;2022-10-17T12:10:25;38.30;;;21.67;;
68614;SDS011;55593;51.994;5.882;2022-10-17T12:22:00;44.05;;;21.70;;
68614;SDS011;55593;51.994;5.882;2022-10-17T12:24:38;34.85;;;20.67;;
68614;SDS011;55593;51.994;5.882;2022-10-17T12:27:22;49.30;;;23.63;;
68614;SDS011;55593;51.994;5.882;2022-10-17T12:29:56;39.15;;;21.17;;
68614;SDS011;55593;51.994;5.882;2022-10-17T12:32:26;67.03;;;27.48;;
68614;SDS011;55593;51.994;5.882;2022-10-17T12:34:55;40.53;;;23.33;;
68614;SDS011;55593;51.994;5.882;2022-10-17T12:41:00;42.13;;;22.02;;
68614;SDS011;55593;51.994;5.882;2022-10-17T12:46:42;39.30;;;21.38;;
68614;SDS011;55593;51.994;5.882;2022-10-17T12:52:22;34.17;;;19.55;;
68614;SDS011;55593;51.994;5.882;2022-10-17T12:55:00;38.78;;;21.27;;
68614;SDS011;55593;51.994;5.882;2022-10-17T12:57:39;37.47;;;21.02;;
68614;SDS011;55593;51.994;5.882;2022-10-17T13:00:13;35.28;;;21.33;;
68614;SDS011;55593;51.994;5.882;2022-10-17T13:02:48;37.03;;;21.35;;
68614;SDS011;55593;51.994;5.882;2022-10-17T13:05:23;36.50;;;21.42;;
68614;SDS011;55593;51.994;5.882;2022-10-17T13:07:56;36.22;;;22.30;;
68614;SDS011;55593;51.994;5.882;2022-10-17T13:10:27;45.08;;;21.80;;
68614;SDS011;55593;51.994;5.882;2022-10-17T13:13:03;43.58;;;22.48;;
68614;SDS011;55593;51.994;5.882;2022-10-17T13:15:34;43.55;;;22.70;;
68614;SDS011;55593;51.994;5.882;2022-10-17T13:18:04;37.63;;;21.95;;
68614;SDS011;55593;51.994;5.882;2022-10-17T13:20:33;40.35;;;22.83;;
68614;SDS011;55593;51.994;5.882;2022-10-17T13:23:02;37.28;;;22.85;;
68614;SDS011;55593;51.994;5.882;2022-10-17T13:25:32;43.15;;;23.35;;
68614;SDS011;55593;51.994;5.882;2022-10-17T13:28:09;39.70;;;22.48;;
68614;SDS011;55593;51.994;5.882;2022-10-17T13:30:44;40.80;;;22.00;;
68614;SDS011;55593;51.994;5.882;2022-10-17T13:33:18;34.05;;;21.45;;
68614;SDS011;55593;51.994;5.882;2022-10-17T13:35:57;40.33;;;22.60;;
68614;SDS011;55593;51.994;5.882;2022-10-17T13:38:28;38.35;;;22.75;;
68614;SDS011;55593;51.994;5.882;2022-10-17T13:40:59;39.45;;;21.50;;
68614;SDS011;55593;51.994;5.882;2022-10-17T13:43:32;35.72;;;21.30;;
68614;SDS011;55593;51.994;5.882;2022-10-17T13:46:01;40.75;;;22.33;;
68614;SDS011;55593;51.994;5.882;2022-10-17T13:48:32;40.10;;;22.45;;
68614;SDS011;55593;51.994;5.882;2022-10-17T13:51:04;35.05;;;20.20;;
68614;SDS011;55593;51.994;5.882;2022-10-17T13:53:34;34.78;;;21.25;;
68614;SDS011;55593;51.994;5.882;2022-10-17T13:56:15;31.70;;;20.75;;
68614;SDS011;55593;51.994;5.882;2022-10-17T13:58:49;46.00;;;23.83;;
68614;SDS011;55593;51.994;5.882;2022-10-17T14:01:21;38.63;;;21.83;;
68614;SDS011;55593;51.994;5.882;2022-10-17T14:03:51;39.95;;;23.83;;
68614;SDS011;55593;51.994;5.882;2022-10-17T14:06:21;44.00;;;23.90;;
68614;SDS011;55593;51.994;5.882;2022-10-17T14:08:55;42.67;;;24.92;;
68614;SDS011;55593;51.994;5.882;2022-10-17T14:11:28;41.70;;;25.85;;
68614;SDS011;55593;51.994;5.882;2022-10-17T14:14:03;45.00;;;25.70;;
68614;SDS011;55593;51.994;5.882;2022-10-17T14:16:35;51.95;;;27.48;;
68614;SDS011;55593;51.994;5.882;2022-10-17T14:19:12;45.60;;;26.85;;
68614;SDS011;55593;51.994;5.882;2022-10-17T14:21:47;53.50;;;29.38;;
68614;SDS011;55593;51.994;5.882;2022-10-17T14:24:25;49.35;;;27.52;;
68614;SDS011;55593;51.994;5.882;2022-10-17T14:26:57;46.42;;;28.25;;
68614;SDS011;55593;51.994;5.882;2022-10-17T14:29:30;43.80;;;25.95;;
68614;SDS011;55593;51.994;5.882;2022-10-17T14:32:03;44.03;;;27.10;;
68614;SDS011;55593;51.994;5.882;2022-10-17T14:34:34;49.33;;;27.42;;
68614;SDS011;55593;51.994;5.882;2022-10-17T14:37:07;42.67;;;27.17;;
68614;SDS011;55593;51.994;5.882;2022-10-17T14:39:37;48.65;;;27.73;;
68614;SDS011;55593;51.994;5.882;2022-10-17T14:42:13;49.03;;;28.88;;
68614;SDS011;55593;51.994;5.882;2022-10-17T14:44:49;43.55;;;25.98;;
68614;SDS011;55593;51.994;5.882;2022-10-17T14:47:20;46.10;;;27.42;;
68614;SDS011;55593;51.994;5.882;2022-10-17T14:50:01;36.88;;;25.40;;
68614;SDS011;55593;51.994;5.882;2022-10-17T14:52:32;47.55;;;29.13;;
68614;SDS011;55593;51.994;5.882;2022-10-17T14:55:20;43.22;;;26.30;;
68614;SDS011;55593;51.994;5.882;2022-10-17T14:57:50;38.65;;;25.67;;
68614;SDS011;55593;51.994;5.882;2022-10-17T15:00:22;44.03;;;27.85;;
68614;SDS011;55593;51.994;5.882;2022-10-17T15:02:53;42.75;;;27.02;;
68614;SDS011;55593;51.994;5.882;2022-10-17T15:05:23;44.45;;;25.50;;
68614;SDS011;55593;51.994;5.882;2022-10-17T15:07:52;40.58;;;25.27;;
68614;SDS011;55593;51.994;5.882;2022-10-17T15:10:31;42.85;;;26.83;;
68614;SDS011;55593;51.994;5.882;2022-10-17T15:13:01;46.55;;;27.60;;
68614;SDS011;55593;51.994;5.882;2022-10-17T15:15:33;50.55;;;30.08;;
68614;SDS011;55593;51.994;5.882;2022-10-17T15:18:03;48.28;;;28.30;;
68614;SDS011;55593;51.994;5.882;2022-10-17T15:20:33;50.72;;;30.75;;